sensor_id;sensor_type;location;lat;lon;timestamp;P1;durP1;ratioP1;P2;durP2;ratioP2
8596;SDS011;4336;49.310;8.646;2023-01-05T00:00:28;8.33;;;7.63;;
8596;SDS011;4336;49.310;8.646;2023-01-05T00:02:56;7.03;;;6.53;;
8596;SDS011;4336;49.310;8.646;2023-01-05T00:05:22;7.57;;;6.97;;
8596;SDS011;4336;49.310;8.646;2023-01-05T00:07:48;8.00;;;7.33;;
8596;SDS011;4336;49.310;8.646;2023-01-05T00:10:15;8.00;;;7.30;;
8596;SDS011;4336;49.310;8.646;2023-01-05T00:12:59;7.57;;;6.97;;
8596;SDS011;4336;49.310;8.646;2023-01-05T00:15:57;7.93;;;7.23;;
8596;SDS011;4336;49.310;8.646;2023-01-05T00:18:42;7.83;;;7.23;;
8596;SDS011;4336;49.310;8.646;2023-01-05T00:21:27;7.90;;;7.30;;
8596;SDS011;4336;49.310;8.646;2023-01-05T00:24:11;7.40;;;6.80;;
8596;SDS011;4336;49.310;8.646;2023-01-05T00:26:38;7.50;;;6.90;;
8596;SDS011;4336;49.310;8.646;2023-01-05T00:29:04;7.70;;;7.10;;
8596;SDS011;4336;49.310;8.646;2023-01-05T00:31:30;7.83;;;7.23;;
8596;SDS011;4336;49.310;8.646;2023-01-05T00:33:56;5.70;;;5.27;;
8596;SDS011;4336;49.310;8.646;2023-01-05T00:36:23;7.97;;;7.20;;
8596;SDS011;4336;49.310;8.646;2023-01-05T00:38:50;8.00;;;7.30;;
8596;SDS011;4336;49.310;8.646;2023-01-05T00:41:16;8.00;;;7.40;;
8596;SDS011;4336;49.310;8.646;2023-01-05T00:43:42;7.50;;;6.90;;
8596;SDS011;4336;49.310;8.646;2023-01-05T00:46:08;7.93;;;7.33;;
8596;SDS011;4336;49.310;8.646;2023-01-05T00:48:34;8.00;;;7.40;;
8596;SDS011;4336;49.310;8.646;2023-01-05T00:51:01;7.40;;;6.80;;
8596;SDS011;4336;49.310;8.646;2023-01-05T00:53:27;5.80;;;5.40;;
8596;SDS011;4336;49.310;8.646;2023-01-05T00:55:56;8.00;;;7.40;;
8596;SDS011;4336;49.310;8.646;2023-01-05T00:58:24;8.90;;;8.20;;
8596;SDS011;4336;49.310;8.646;2023-01-05T01:00:50;7.47;;;6.87;;
8596;SDS011;4336;49.310;8.646;2023-01-05T01:03:17;7.63;;;7.03;;
8596;SDS011;4336;49.310;8.646;2023-01-05T01:05:43;8.07;;;7.40;;
8596;SDS011;4336;49.310;8.646;2023-01-05T01:08:09;6.30;;;5.80;;
8596;SDS011;4336;49.310;8.646;2023-01-05T01:10:37;7.67;;;7.07;;
8596;SDS011;4336;49.310;8.646;2023-01-05T01:13:03;8.20;;;7.60;;
8596;SDS011;4336;49.310;8.646;2023-01-05T01:15:30;8.37;;;7.57;;
8596;SDS011;4336;49.310;8.646;2023-01-05T01:17:56;8.30;;;7.53;;
8596;SDS011;4336;49.310;8.646;2023-01-05T01:20:22;7.77;;;7.13;;
8596;SDS011;4336;49.310;8.646;2023-01-05T01:22:48;5.80;;;5.40;;
8596;SDS011;4336;49.310;8.646;2023-01-05T01:25:14;8.00;;;7.40;;
8596;SDS011;4336;49.310;8.646;2023-01-05T01:27:40;8.30;;;7.60;;
8596;SDS011;4336;49.310;8.646;2023-01-05T01:30:07;8.10;;;7.50;;
8596;SDS011;4336;49.310;8.646;2023-01-05T01:32:33;6.10;;;5.70;;
8596;SDS011;4336;49.310;8.646;2023-01-05T01:34:59;7.53;;;6.83;;
8596;SDS011;4336;49.310;8.646;2023-01-05T01:37:26;8.00;;;7.40;;
8596;SDS011;4336;49.310;8.646;2023-01-05T01:39:54;8.10;;;7.50;;
8596;SDS011;4336;49.310;8.646;2023-01-05T01:42:21;8.07;;;7.47;;
8596;SDS011;4336;49.310;8.646;2023-01-05T01:44:58;7.67;;;7.03;;
8596;SDS011;4336;49.310;8.646;2023-01-05T01:50:00;7.43;;;6.87;;
8596;SDS011;4336;49.310;8.646;2023-01-05T01:52:26;7.87;;;7.27;;
8596;SDS011;4336;49.310;8.646;2023-01-05T01:54:55;8.20;;;7.50;;
8596;SDS011;4336;49.310;8.646;2023-01-05T01:57:21;8.60;;;7.90;;
8596;SDS011;4336;49.310;8.646;2023-01-05T01:59:48;8.40;;;7.70;;
8596;SDS011;4336;49.310;8.646;2023-01-05T02:02:15;7.50;;;6.90;;
8596;SDS011;4336;49.310;8.646;2023-01-05T02:04:41;7.80;;;7.20;;
8596;SDS011;4336;49.310;8.646;2023-01-05T02:07:08;7.70;;;7.10;;
8596;SDS011;4336;49.310;8.646;2023-01-05T02:09:36;8.00;;;7.40;;
8596;SDS011;4336;49.310;8.646;2023-01-05T02:29:58;6.43;;;5.93;;
8596;SDS011;4336;49.310;8.646;2023-01-05T02:37:58;8.40;;;7.70;;
8596;SDS011;4336;49.310;8.646;2023-01-05T02:40:28;7.67;;;7.07;;
8596;SDS011;4336;49.310;8.646;2023-01-05T02:42:58;7.97;;;7.30;;
8596;SDS011;4336;49.310;8.646;2023-01-05T02:45:24;7.50;;;6.90;;
8596;SDS011;4336;49.310;8.646;2023-01-05T02:47:55;8.23;;;7.53;;
8596;SDS011;4336;49.310;8.646;2023-01-05T02:50:22;8.53;;;7.57;;
8596;SDS011;4336;49.310;8.646;2023-01-05T02:52:59;8.53;;;7.83;;
8596;SDS011;4336;49.310;8.646;2023-01-05T02:55:38;8.13;;;7.53;;
8596;SDS011;4336;49.310;8.646;2023-01-05T02:58:09;7.53;;;6.83;;
8596;SDS011;4336;49.310;8.646;2023-01-05T03:00:39;7.40;;;6.80;;
8596;SDS011;4336;49.310;8.646;2023-01-05T03:03:08;7.80;;;7.20;;
8596;SDS011;4336;49.310;8.646;2023-01-05T03:05:42;8.00;;;7.40;;
8596;SDS011;4336;49.310;8.646;2023-01-05T03:08:11;8.37;;;7.73;;
8596;SDS011;4336;49.310;8.646;2023-01-05T03:11:09;7.40;;;6.80;;
8596;SDS011;4336;49.310;8.646;2023-01-05T03:16:29;8.00;;;7.20;;
8596;SDS011;4336;49.310;8.646;2023-01-05T03:18:58;7.60;;;7.00;;
8596;SDS011;4336;49.310;8.646;2023-01-05T03:21:45;7.17;;;6.63;;
8596;SDS011;4336;49.310;8.646;2023-01-05T03:24:35;7.60;;;7.00;;
8596;SDS011;4336;49.310;8.646;2023-01-05T03:27:22;8.00;;;7.40;;
8596;SDS011;4336;49.310;8.646;2023-01-05T03:30:09;7.50;;;6.90;;
8596;SDS011;4336;49.310;8.646;2023-01-05T03:33:03;7.97;;;7.37;;
8596;SDS011;4336;49.310;8.646;2023-01-05T03:35:49;7.80;;;7.20;;
8596;SDS011;4336;49.310;8.646;2023-01-05T03:40:43;8.97;;;8.17;;
8596;SDS011;4336;49.310;8.646;2023-01-05T03:43:11;12.00;;;8.43;;
8596;SDS011;4336;49.310;8.646;2023-01-05T03:45:40;7.57;;;6.97;;
8596;SDS011;4336;49.310;8.646;2023-01-05T03:48:12;8.60;;;7.93;;
8596;SDS011;4336;49.310;8.646;2023-01-05T03:50:39;8.20;;;7.43;;
8596;SDS011;4336;49.310;8.646;2023-01-05T03:53:08;7.97;;;7.30;;
8596;SDS011;4336;49.310;8.646;2023-01-05T03:55:34;7.67;;;7.07;;
8596;SDS011;4336;49.310;8.646;2023-01-05T03:58:00;7.20;;;6.70;;
8596;SDS011;4336;49.310;8.646;2023-01-05T04:00:27;7.50;;;6.80;;
8596;SDS011;4336;49.310;8.646;2023-01-05T04:03:00;6.33;;;5.83;;
8596;SDS011;4336;49.310;8.646;2023-01-05T04:05:26;6.80;;;6.30;;
8596;SDS011;4336;49.310;8.646;2023-01-05T04:07:52;8.07;;;7.47;;
8596;SDS011;4336;49.310;8.646;2023-01-05T04:10:19;7.57;;;7.00;;
8596;SDS011;4336;49.310;8.646;2023-01-05T04:12:46;6.30;;;5.80;;
8596;SDS011;4336;49.310;8.646;2023-01-05T04:15:14;8.00;;;7.40;;
8596;SDS011;4336;49.310;8.646;2023-01-05T04:17:41;7.80;;;7.20;;
8596;SDS011;4336;49.310;8.646;2023-01-05T04:20:10;7.60;;;7.00;;
8596;SDS011;4336;49.310;8.646;2023-01-05T04:22:36;5.23;;;4.87;;
8596;SDS011;4336;49.310;8.646;2023-01-05T04:25:04;8.10;;;7.50;;
8596;SDS011;4336;49.310;8.646;2023-01-05T04:27:31;7.90;;;7.30;;
8596;SDS011;4336;49.310;8.646;2023-01-05T04:29:58;7.90;;;7.30;;
8596;SDS011;4336;49.310;8.646;2023-01-05T04:32:24;5.40;;;5.00;;
8596;SDS011;4336;49.310;8.646;2023-01-05T04:34:51;7.67;;;7.07;;
8596;SDS011;4336;49.310;8.646;2023-01-05T04:37:19;5.60;;;5.03;;
8596;SDS011;4336;49.310;8.646;2023-01-05T04:39:46;7.80;;;7.20;;
8596;SDS011;4336;49.310;8.646;2023-01-05T04:42:13;5.60;;;5.20;;
8596;SDS011;4336;49.310;8.646;2023-01-05T04:44:41;7.60;;;7.00;;
8596;SDS011;4336;49.310;8.646;2023-01-05T04:47:07;7.33;;;6.73;;
8596;SDS011;4336;49.310;8.646;2023-01-05T04:49:37;7.70;;;7.10;;
8596;SDS011;4336;49.310;8.646;2023-01-05T04:52:05;7.87;;;7.27;;
8596;SDS011;4336;49.310;8.646;2023-01-05T04:54:32;7.80;;;7.20;;
8596;SDS011;4336;49.310;8.646;2023-01-05T04:56:59;5.30;;;4.90;;
8596;SDS011;4336;49.310;8.646;2023-01-05T04:59:27;7.70;;;7.10;;
8596;SDS011;4336;49.310;8.646;2023-01-05T05:01:58;7.83;;;7.20;;
8596;SDS011;4336;49.310;8.646;2023-01-05T05:04:27;7.80;;;7.10;;
8596;SDS011;4336;49.310;8.646;2023-01-05T05:06:54;8.47;;;7.77;;
8596;SDS011;4336;49.310;8.646;2023-01-05T05:09:23;7.80;;;7.20;;
8596;SDS011;4336;49.310;8.646;2023-01-05T05:11:50;8.23;;;7.50;;
8596;SDS011;4336;49.310;8.646;2023-01-05T05:14:20;8.13;;;7.30;;
8596;SDS011;4336;49.310;8.646;2023-01-05T05:16:46;9.23;;;7.83;;
8596;SDS011;4336;49.310;8.646;2023-01-05T05:19:12;13.20;;;8.93;;
8596;SDS011;4336;49.310;8.646;2023-01-05T05:21:39;10.10;;;8.13;;
8596;SDS011;4336;49.310;8.646;2023-01-05T05:24:05;10.00;;;7.40;;
8596;SDS011;4336;49.310;8.646;2023-01-05T05:26:35;11.53;;;7.03;;
8596;SDS011;4336;49.310;8.646;2023-01-05T05:29:02;9.57;;;6.53;;
8596;SDS011;4336;49.310;8.646;2023-01-05T05:31:28;15.00;;;8.53;;
8596;SDS011;4336;49.310;8.646;2023-01-05T05:33:54;13.00;;;8.23;;
8596;SDS011;4336;49.310;8.646;2023-01-05T05:36:20;9.53;;;7.90;;
8596;SDS011;4336;49.310;8.646;2023-01-05T05:38:47;13.10;;;7.97;;
8596;SDS011;4336;49.310;8.646;2023-01-05T05:41:13;11.23;;;6.77;;
8596;SDS011;4336;49.310;8.646;2023-01-05T05:43:39;8.20;;;7.40;;
8596;SDS011;4336;49.310;8.646;2023-01-05T05:46:05;9.23;;;8.30;;
8596;SDS011;4336;49.310;8.646;2023-01-05T05:48:32;11.53;;;8.23;;
8596;SDS011;4336;49.310;8.646;2023-01-05T05:50:58;9.77;;;7.43;;
8596;SDS011;4336;49.310;8.646;2023-01-05T05:53:25;10.93;;;8.10;;
8596;SDS011;4336;49.310;8.646;2023-01-05T05:55:51;12.27;;;8.07;;
8596;SDS011;4336;49.310;8.646;2023-01-05T05:58:17;9.93;;;8.47;;
8596;SDS011;4336;49.310;8.646;2023-01-05T06:00:44;9.40;;;7.60;;
8596;SDS011;4336;49.310;8.646;2023-01-05T06:03:10;10.53;;;8.07;;
8596;SDS011;4336;49.310;8.646;2023-01-05T06:05:36;13.37;;;8.30;;
8596;SDS011;4336;49.310;8.646;2023-01-05T06:08:02;9.50;;;8.53;;
8596;SDS011;4336;49.310;8.646;2023-01-05T06:10:29;17.70;;;8.30;;
8596;SDS011;4336;49.310;8.646;2023-01-05T06:12:55;15.07;;;8.97;;
8596;SDS011;4336;49.310;8.646;2023-01-05T06:15:21;14.53;;;7.60;;
8596;SDS011;4336;49.310;8.646;2023-01-05T06:17:48;16.80;;;9.13;;
8596;SDS011;4336;49.310;8.646;2023-01-05T06:20:14;10.40;;;8.07;;
8596;SDS011;4336;49.310;8.646;2023-01-05T06:22:41;9.53;;;8.33;;
8596;SDS011;4336;49.310;8.646;2023-01-05T06:25:08;17.27;;;8.00;;
8596;SDS011;4336;49.310;8.646;2023-01-05T06:27:34;20.57;;;8.67;;
8596;SDS011;4336;49.310;8.646;2023-01-05T06:30:00;12.73;;;7.27;;
8596;SDS011;4336;49.310;8.646;2023-01-05T06:32:26;9.20;;;6.67;;
8596;SDS011;4336;49.310;8.646;2023-01-05T06:34:52;13.20;;;8.17;;
8596;SDS011;4336;49.310;8.646;2023-01-05T06:37:18;14.80;;;8.57;;
8596;SDS011;4336;49.310;8.646;2023-01-05T06:39:44;12.30;;;8.70;;
8596;SDS011;4336;49.310;8.646;2023-01-05T06:42:10;12.67;;;8.23;;
8596;SDS011;4336;49.310;8.646;2023-01-05T06:44:36;13.40;;;8.00;;
8596;SDS011;4336;49.310;8.646;2023-01-05T06:47:02;11.67;;;8.77;;
8596;SDS011;4336;49.310;8.646;2023-01-05T06:49:28;8.70;;;7.50;;
8596;SDS011;4336;49.310;8.646;2023-01-05T06:51:53;13.27;;;8.50;;
8596;SDS011;4336;49.310;8.646;2023-01-05T06:54:19;15.03;;;8.40;;
8596;SDS011;4336;49.310;8.646;2023-01-05T06:56:45;8.17;;;6.70;;
8596;SDS011;4336;49.310;8.646;2023-01-05T06:59:11;18.40;;;7.93;;
8596;SDS011;4336;49.310;8.646;2023-01-05T07:01:37;15.27;;;6.90;;
8596;SDS011;4336;49.310;8.646;2023-01-05T07:04:03;7.43;;;6.37;;
8596;SDS011;4336;49.310;8.646;2023-01-05T07:06:29;15.53;;;8.00;;
8596;SDS011;4336;49.310;8.646;2023-01-05T07:08:56;12.50;;;8.20;;
8596;SDS011;4336;49.310;8.646;2023-01-05T07:11:22;20.27;;;9.33;;
8596;SDS011;4336;49.310;8.646;2023-01-05T07:13:48;9.07;;;7.57;;
8596;SDS011;4336;49.310;8.646;2023-01-05T07:16:15;10.43;;;7.63;;
8596;SDS011;4336;49.310;8.646;2023-01-05T07:18:41;13.87;;;9.30;;
8596;SDS011;4336;49.310;8.646;2023-01-05T07:21:10;8.73;;;7.90;;
8596;SDS011;4336;49.310;8.646;2023-01-05T07:23:36;12.93;;;8.63;;
8596;SDS011;4336;49.310;8.646;2023-01-05T07:26:02;9.37;;;7.53;;
8596;SDS011;4336;49.310;8.646;2023-01-05T07:28:28;10.40;;;9.20;;
8596;SDS011;4336;49.310;8.646;2023-01-05T07:30:55;9.07;;;8.10;;
8596;SDS011;4336;49.310;8.646;2023-01-05T07:33:20;11.77;;;9.20;;
8596;SDS011;4336;49.310;8.646;2023-01-05T07:35:46;13.50;;;7.90;;
8596;SDS011;4336;49.310;8.646;2023-01-05T07:38:12;10.43;;;8.87;;
8596;SDS011;4336;49.310;8.646;2023-01-05T07:40:39;10.57;;;8.07;;
8596;SDS011;4336;49.310;8.646;2023-01-05T07:43:05;13.70;;;8.20;;
8596;SDS011;4336;49.310;8.646;2023-01-05T07:45:31;8.93;;;6.63;;
8596;SDS011;4336;49.310;8.646;2023-01-05T07:47:57;11.03;;;7.43;;
8596;SDS011;4336;49.310;8.646;2023-01-05T07:50:24;23.77;;;9.13;;
8596;SDS011;4336;49.310;8.646;2023-01-05T07:52:50;13.67;;;6.57;;
8596;SDS011;4336;49.310;8.646;2023-01-05T07:55:16;14.60;;;9.20;;
8596;SDS011;4336;49.310;8.646;2023-01-05T07:57:42;9.73;;;8.73;;
8596;SDS011;4336;49.310;8.646;2023-01-05T08:00:09;9.07;;;8.27;;
8596;SDS011;4336;49.310;8.646;2023-01-05T08:02:38;13.20;;;8.73;;
8596;SDS011;4336;49.310;8.646;2023-01-05T08:05:04;12.33;;;9.47;;
8596;SDS011;4336;49.310;8.646;2023-01-05T08:07:31;12.50;;;9.13;;
8596;SDS011;4336;49.310;8.646;2023-01-05T08:09:57;10.40;;;8.47;;
8596;SDS011;4336;49.310;8.646;2023-01-05T08:12:42;12.40;;;9.07;;
8596;SDS011;4336;49.310;8.646;2023-01-05T08:15:34;11.57;;;9.50;;
8596;SDS011;4336;49.310;8.646;2023-01-05T08:18:00;14.40;;;9.07;;
8596;SDS011;4336;49.310;8.646;2023-01-05T08:20:26;12.63;;;7.87;;
8596;SDS011;4336;49.310;8.646;2023-01-05T08:22:52;9.40;;;8.40;;
8596;SDS011;4336;49.310;8.646;2023-01-05T08:25:18;14.57;;;9.20;;
8596;SDS011;4336;49.310;8.646;2023-01-05T08:27:45;10.63;;;9.53;;
8596;SDS011;4336;49.310;8.646;2023-01-05T08:30:11;12.00;;;9.10;;
8596;SDS011;4336;49.310;8.646;2023-01-05T08:32:38;12.87;;;9.20;;
8596;SDS011;4336;49.310;8.646;2023-01-05T08:35:05;13.13;;;9.47;;
8596;SDS011;4336;49.310;8.646;2023-01-05T08:37:31;11.80;;;9.37;;
8596;SDS011;4336;49.310;8.646;2023-01-05T08:39:57;10.97;;;9.23;;
8596;SDS011;4336;49.310;8.646;2023-01-05T08:42:23;9.70;;;8.67;;
8596;SDS011;4336;49.310;8.646;2023-01-05T08:44:48;14.50;;;10.10;;
8596;SDS011;4336;49.310;8.646;2023-01-05T08:47:14;9.80;;;8.43;;
8596;SDS011;4336;49.310;8.646;2023-01-05T08:49:40;11.03;;;9.13;;
8596;SDS011;4336;49.310;8.646;2023-01-05T08:52:06;13.73;;;9.30;;
8596;SDS011;4336;49.310;8.646;2023-01-05T08:54:33;14.70;;;9.20;;
8596;SDS011;4336;49.310;8.646;2023-01-05T08:56:59;11.47;;;8.93;;
8596;SDS011;4336;49.310;8.646;2023-01-05T08:59:26;16.27;;;9.37;;
8596;SDS011;4336;49.310;8.646;2023-01-05T09:01:52;14.37;;;8.43;;
8596;SDS011;4336;49.310;8.646;2023-01-05T09:04:18;17.43;;;10.17;;
8596;SDS011;4336;49.310;8.646;2023-01-05T09:06:44;10.73;;;8.27;;
8596;SDS011;4336;49.310;8.646;2023-01-05T09:09:10;14.67;;;8.50;;
8596;SDS011;4336;49.310;8.646;2023-01-05T09:11:36;12.40;;;8.53;;
8596;SDS011;4336;49.310;8.646;2023-01-05T09:14:02;9.40;;;8.40;;
8596;SDS011;4336;49.310;8.646;2023-01-05T09:16:32;10.17;;;8.60;;
8596;SDS011;4336;49.310;8.646;2023-01-05T09:18:59;11.13;;;8.80;;
8596;SDS011;4336;49.310;8.646;2023-01-05T09:21:28;13.37;;;9.40;;
8596;SDS011;4336;49.310;8.646;2023-01-05T09:23:54;12.53;;;8.57;;
8596;SDS011;4336;49.310;8.646;2023-01-05T09:26:20;11.37;;;7.50;;
8596;SDS011;4336;49.310;8.646;2023-01-05T09:28:46;9.60;;;7.60;;
8596;SDS011;4336;49.310;8.646;2023-01-05T09:31:13;13.80;;;9.50;;
8596;SDS011;4336;49.310;8.646;2023-01-05T09:33:40;10.53;;;9.43;;
8596;SDS011;4336;49.310;8.646;2023-01-05T09:36:07;9.77;;;6.80;;
8596;SDS011;4336;49.310;8.646;2023-01-05T09:38:33;8.83;;;6.77;;
8596;SDS011;4336;49.310;8.646;2023-01-05T09:41:19;10.43;;;6.97;;
8596;SDS011;4336;49.310;8.646;2023-01-05T09:43:48;9.30;;;8.27;;
8596;SDS011;4336;49.310;8.646;2023-01-05T09:46:16;10.60;;;8.80;;
8596;SDS011;4336;49.310;8.646;2023-01-05T09:48:44;11.43;;;8.20;;
8596;SDS011;4336;49.310;8.646;2023-01-05T09:51:11;10.93;;;8.40;;
8596;SDS011;4336;49.310;8.646;2023-01-05T09:53:38;14.50;;;9.27;;
8596;SDS011;4336;49.310;8.646;2023-01-05T09:56:05;17.37;;;9.10;;
8596;SDS011;4336;49.310;8.646;2023-01-05T09:58:33;15.13;;;7.47;;
8596;SDS011;4336;49.310;8.646;2023-01-05T10:01:05;15.43;;;10.23;;
8596;SDS011;4336;49.310;8.646;2023-01-05T10:03:34;20.10;;;12.17;;
8596;SDS011;4336;49.310;8.646;2023-01-05T10:06:03;15.03;;;8.77;;
8596;SDS011;4336;49.310;8.646;2023-01-05T10:08:35;10.43;;;8.47;;
8596;SDS011;4336;49.310;8.646;2023-01-05T10:11:06;12.40;;;9.50;;
8596;SDS011;4336;49.310;8.646;2023-01-05T10:14:00;14.17;;;9.13;;
8596;SDS011;4336;49.310;8.646;2023-01-05T10:16:29;11.40;;;7.00;;
8596;SDS011;4336;49.310;8.646;2023-01-05T10:18:56;11.13;;;8.70;;
8596;SDS011;4336;49.310;8.646;2023-01-05T10:21:35;13.90;;;9.30;;
8596;SDS011;4336;49.310;8.646;2023-01-05T10:24:41;9.57;;;8.57;;
8596;SDS011;4336;49.310;8.646;2023-01-05T10:27:32;11.70;;;9.13;;
8596;SDS011;4336;49.310;8.646;2023-01-05T10:45:39;12.30;;;10.00;;
8596;SDS011;4336;49.310;8.646;2023-01-05T10:48:12;12.77;;;7.87;;
8596;SDS011;4336;49.310;8.646;2023-01-05T10:50:44;11.80;;;8.23;;
8596;SDS011;4336;49.310;8.646;2023-01-05T10:53:15;22.13;;;9.40;;
8596;SDS011;4336;49.310;8.646;2023-01-05T10:56:24;9.40;;;8.27;;
8596;SDS011;4336;49.310;8.646;2023-01-05T10:58:31;14.17;;;9.73;;
8596;SDS011;4336;49.310;8.646;2023-01-05T11:01:45;10.37;;;7.93;;
8596;SDS011;4336;49.310;8.646;2023-01-05T11:04:00;13.77;;;8.70;;
8596;SDS011;4336;49.310;8.646;2023-01-05T11:06:28;25.43;;;9.57;;
8596;SDS011;4336;49.310;8.646;2023-01-05T11:09:03;14.60;;;9.33;;
8596;SDS011;4336;49.310;8.646;2023-01-05T11:11:30;15.27;;;7.13;;
8596;SDS011;4336;49.310;8.646;2023-01-05T11:13:56;12.60;;;8.70;;
8596;SDS011;4336;49.310;8.646;2023-01-05T11:16:24;16.07;;;9.33;;
8596;SDS011;4336;49.310;8.646;2023-01-05T11:23:51;16.50;;;9.90;;
8596;SDS011;4336;49.310;8.646;2023-01-05T11:29:02;10.63;;;9.53;;
8596;SDS011;4336;49.310;8.646;2023-01-05T11:34:05;17.63;;;10.20;;
8596;SDS011;4336;49.310;8.646;2023-01-05T11:36:31;15.00;;;8.97;;
8596;SDS011;4336;49.310;8.646;2023-01-05T11:38:58;15.90;;;9.23;;
8596;SDS011;4336;49.310;8.646;2023-01-05T11:41:24;11.27;;;8.97;;
8596;SDS011;4336;49.310;8.646;2023-01-05T11:43:51;11.23;;;7.90;;
8596;SDS011;4336;49.310;8.646;2023-01-05T11:46:18;10.53;;;8.50;;
8596;SDS011;4336;49.310;8.646;2023-01-05T11:48:52;15.03;;;9.37;;
8596;SDS011;4336;49.310;8.646;2023-01-05T11:51:31;15.97;;;9.53;;
8596;SDS011;4336;49.310;8.646;2023-01-05T11:53:58;12.47;;;9.07;;
8596;SDS011;4336;49.310;8.646;2023-01-05T11:56:25;17.37;;;8.90;;
8596;SDS011;4336;49.310;8.646;2023-01-05T11:58:55;17.87;;;8.80;;
8596;SDS011;4336;49.310;8.646;2023-01-05T12:07:00;16.07;;;8.53;;
8596;SDS011;4336;49.310;8.646;2023-01-05T12:09:35;11.93;;;8.73;;
8596;SDS011;4336;49.310;8.646;2023-01-05T12:14:54;17.23;;;8.90;;
8596;SDS011;4336;49.310;8.646;2023-01-05T12:21:02;18.17;;;9.80;;
8596;SDS011;4336;49.310;8.646;2023-01-05T12:26:14;18.93;;;10.60;;
8596;SDS011;4336;49.310;8.646;2023-01-05T12:34:18;12.67;;;8.10;;
8596;SDS011;4336;49.310;8.646;2023-01-05T12:39:34;13.20;;;7.57;;
8596;SDS011;4336;49.310;8.646;2023-01-05T12:42:32;14.67;;;9.63;;
8596;SDS011;4336;49.310;8.646;2023-01-05T12:48:02;15.87;;;10.43;;
8596;SDS011;4336;49.310;8.646;2023-01-05T12:50:44;13.07;;;8.77;;
8596;SDS011;4336;49.310;8.646;2023-01-05T12:53:12;12.93;;;9.60;;
8596;SDS011;4336;49.310;8.646;2023-01-05T12:56:02;13.27;;;8.70;;
8596;SDS011;4336;49.310;8.646;2023-01-05T12:58:41;12.50;;;9.57;;
8596;SDS011;4336;49.310;8.646;2023-01-05T13:01:14;8.43;;;6.93;;
8596;SDS011;4336;49.310;8.646;2023-01-05T13:03:46;13.00;;;8.73;;
8596;SDS011;4336;49.310;8.646;2023-01-05T13:06:17;13.33;;;9.23;;
8596;SDS011;4336;49.310;8.646;2023-01-05T13:08:51;13.13;;;9.63;;
8596;SDS011;4336;49.310;8.646;2023-01-05T13:11:24;9.87;;;8.87;;
8596;SDS011;4336;49.310;8.646;2023-01-05T13:13:53;21.83;;;10.80;;
8596;SDS011;4336;49.310;8.646;2023-01-05T13:16:28;14.00;;;9.83;;
8596;SDS011;4336;49.310;8.646;2023-01-05T13:18:57;22.00;;;10.30;;
8596;SDS011;4336;49.310;8.646;2023-01-05T13:21:31;21.40;;;13.63;;
8596;SDS011;4336;49.310;8.646;2023-01-05T13:23:59;19.23;;;11.33;;
8596;SDS011;4336;49.310;8.646;2023-01-05T13:26:29;12.43;;;10.27;;
8596;SDS011;4336;49.310;8.646;2023-01-05T13:28:55;14.67;;;11.27;;
8596;SDS011;4336;49.310;8.646;2023-01-05T13:42:17;15.27;;;10.13;;
8596;SDS011;4336;49.310;8.646;2023-01-05T13:44:49;18.13;;;9.83;;
8596;SDS011;4336;49.310;8.646;2023-01-05T13:50:31;10.53;;;9.43;;
8596;SDS011;4336;49.310;8.646;2023-01-05T13:55:47;15.97;;;6.97;;
8596;SDS011;4336;49.310;8.646;2023-01-05T13:58:34;11.30;;;6.57;;
8596;SDS011;4336;49.310;8.646;2023-01-05T14:01:37;12.13;;;6.30;;
8596;SDS011;4336;49.310;8.646;2023-01-05T14:04:14;13.77;;;6.93;;
8596;SDS011;4336;49.310;8.646;2023-01-05T14:06:43;9.57;;;6.77;;
8596;SDS011;4336;49.310;8.646;2023-01-05T14:09:18;13.13;;;6.77;;
8596;SDS011;4336;49.310;8.646;2023-01-05T14:22:58;9.50;;;6.20;;
8596;SDS011;4336;49.310;8.646;2023-01-05T14:28:17;11.23;;;8.23;;
8596;SDS011;4336;49.310;8.646;2023-01-05T14:30:48;11.53;;;7.00;;
8596;SDS011;4336;49.310;8.646;2023-01-05T14:33:16;18.03;;;6.90;;
8596;SDS011;4336;49.310;8.646;2023-01-05T14:35:42;15.20;;;9.03;;
8596;SDS011;4336;49.310;8.646;2023-01-05T14:38:29;17.63;;;8.27;;
8596;SDS011;4336;49.310;8.646;2023-01-05T14:40:54;20.43;;;10.03;;
8596;SDS011;4336;49.310;8.646;2023-01-05T14:43:21;13.77;;;8.20;;
8596;SDS011;4336;49.310;8.646;2023-01-05T14:53:45;15.60;;;8.10;;
8596;SDS011;4336;49.310;8.646;2023-01-05T14:56:13;24.87;;;10.87;;
8596;SDS011;4336;49.310;8.646;2023-01-05T14:59:32;16.47;;;7.17;;
8596;SDS011;4336;49.310;8.646;2023-01-05T15:02:00;16.67;;;7.93;;
8596;SDS011;4336;49.310;8.646;2023-01-05T15:04:33;9.93;;;5.57;;
8596;SDS011;4336;49.310;8.646;2023-01-05T15:07:31;13.53;;;6.93;;
8596;SDS011;4336;49.310;8.646;2023-01-05T15:15:41;13.30;;;6.90;;
8596;SDS011;4336;49.310;8.646;2023-01-05T15:18:18;20.73;;;9.03;;
8596;SDS011;4336;49.310;8.646;2023-01-05T15:32:49;16.97;;;8.50;;
8596;SDS011;4336;49.310;8.646;2023-01-05T15:35:19;12.37;;;6.27;;
8596;SDS011;4336;49.310;8.646;2023-01-05T15:37:46;21.83;;;8.90;;
8596;SDS011;4336;49.310;8.646;2023-01-05T15:42:48;22.27;;;9.30;;
8596;SDS011;4336;49.310;8.646;2023-01-05T15:47:48;9.33;;;6.87;;
8596;SDS011;4336;49.310;8.646;2023-01-05T15:50:24;20.83;;;7.73;;
8596;SDS011;4336;49.310;8.646;2023-01-05T15:52:57;11.90;;;7.23;;
8596;SDS011;4336;49.310;8.646;2023-01-05T15:55:25;15.50;;;7.50;;
8596;SDS011;4336;49.310;8.646;2023-01-05T15:57:52;16.43;;;9.63;;
8596;SDS011;4336;49.310;8.646;2023-01-05T16:00:21;31.87;;;12.20;;
8596;SDS011;4336;49.310;8.646;2023-01-05T16:02:49;25.27;;;14.43;;
8596;SDS011;4336;49.310;8.646;2023-01-05T16:05:19;17.20;;;8.87;;
8596;SDS011;4336;49.310;8.646;2023-01-05T16:07:52;12.93;;;7.83;;
8596;SDS011;4336;49.310;8.646;2023-01-05T16:10:34;15.33;;;9.37;;
8596;SDS011;4336;49.310;8.646;2023-01-05T16:13:10;16.90;;;9.30;;
8596;SDS011;4336;49.310;8.646;2023-01-05T16:15:37;15.73;;;8.47;;
8596;SDS011;4336;49.310;8.646;2023-01-05T16:18:04;14.00;;;6.57;;
8596;SDS011;4336;49.310;8.646;2023-01-05T16:20:31;12.37;;;7.73;;
8596;SDS011;4336;49.310;8.646;2023-01-05T16:25:48;19.13;;;9.73;;
8596;SDS011;4336;49.310;8.646;2023-01-05T16:28:16;13.60;;;8.40;;
8596;SDS011;4336;49.310;8.646;2023-01-05T16:30:43;15.50;;;9.00;;
8596;SDS011;4336;49.310;8.646;2023-01-05T16:35:43;15.43;;;9.30;;
8596;SDS011;4336;49.310;8.646;2023-01-05T16:43:30;17.73;;;9.37;;
8596;SDS011;4336;49.310;8.646;2023-01-05T16:46:06;12.87;;;9.50;;
8596;SDS011;4336;49.310;8.646;2023-01-05T16:48:44;15.37;;;9.37;;
8596;SDS011;4336;49.310;8.646;2023-01-05T16:51:18;14.63;;;10.50;;
8596;SDS011;4336;49.310;8.646;2023-01-05T16:53:47;18.57;;;10.70;;
8596;SDS011;4336;49.310;8.646;2023-01-05T16:57:03;10.93;;;9.50;;
8596;SDS011;4336;49.310;8.646;2023-01-05T16:59:29;19.03;;;9.73;;
8596;SDS011;4336;49.310;8.646;2023-01-05T17:01:50;15.30;;;9.87;;
8596;SDS011;4336;49.310;8.646;2023-01-05T17:04:16;12.57;;;10.17;;
8596;SDS011;4336;49.310;8.646;2023-01-05T17:06:46;15.37;;;10.07;;
8596;SDS011;4336;49.310;8.646;2023-01-05T17:09:21;11.93;;;8.27;;
8596;SDS011;4336;49.310;8.646;2023-01-05T17:11:51;18.40;;;10.83;;
8596;SDS011;4336;49.310;8.646;2023-01-05T17:14:17;13.00;;;8.70;;
8596;SDS011;4336;49.310;8.646;2023-01-05T17:16:44;15.93;;;10.47;;
8596;SDS011;4336;49.310;8.646;2023-01-05T17:19:14;14.50;;;10.27;;
8596;SDS011;4336;49.310;8.646;2023-01-05T17:21:42;15.07;;;11.17;;
8596;SDS011;4336;49.310;8.646;2023-01-05T17:24:16;19.53;;;11.73;;
8596;SDS011;4336;49.310;8.646;2023-01-05T17:26:43;16.70;;;11.83;;
8596;SDS011;4336;49.310;8.646;2023-01-05T17:29:09;15.67;;;10.10;;
8596;SDS011;4336;49.310;8.646;2023-01-05T17:31:46;12.60;;;9.43;;
8596;SDS011;4336;49.310;8.646;2023-01-05T17:34:12;13.83;;;10.53;;
8596;SDS011;4336;49.310;8.646;2023-01-05T17:36:38;20.63;;;14.33;;
8596;SDS011;4336;49.310;8.646;2023-01-05T17:39:04;17.77;;;10.90;;
8596;SDS011;4336;49.310;8.646;2023-01-05T17:41:30;16.60;;;11.33;;
8596;SDS011;4336;49.310;8.646;2023-01-05T17:43:56;14.23;;;10.67;;
8596;SDS011;4336;49.310;8.646;2023-01-05T17:46:27;12.10;;;8.13;;
8596;SDS011;4336;49.310;8.646;2023-01-05T17:48:54;14.23;;;10.40;;
8596;SDS011;4336;49.310;8.646;2023-01-05T17:51:24;16.90;;;10.93;;
8596;SDS011;4336;49.310;8.646;2023-01-05T17:53:53;18.00;;;11.47;;
8596;SDS011;4336;49.310;8.646;2023-01-05T17:56:20;18.17;;;9.70;;